Time;durP1;ratioP1;P1;durP2;ratioP2;P2;SDS_P1;SDS_P2;PMS_P1;PMS_P2;Temp;Humidity;BMP_temperature;BMP_pressure;BME280_temperature;BME280_humidity;BME280_pressure;Samples;Min_cycle;Max_cycle;Signal;HPM_P1;HPM_P2
2021/12/14 00:00:18;;;;;;;;;;;7.20;96.90;;;;;;5094304;28;19908;-70
2021/12/14 00:02:44;;;;;;;;;;;7.20;97.00;;;;;;5088932;28;19919;-70
2021/12/14 00:05:10;;;;;;;;;;;7.10;96.90;;;;;;5081184;28;19915;-70
2021/12/14 00:07:36;;;;;;;;;;;7.20;96.90;;;;;;5090751;28;20325;-70
2021/12/14 00:10:14;;;;;;;;;;;7.10;96.90;;;;;;5089416;28;19943;-70
2021/12/14 00:13:01;;;;;;;;;;;7.10;96.90;;;;;;5089411;28;19919;-70
2021/12/14 00:15:26;;;;;;;;;;;7.10;96.90;;;;;;5089313;28;20622;-70
2021/12/14 00:17:54;;;;;;;;;;;7.10;96.90;;;;;;5093161;28;19952;-70
2021/12/14 00:20:19;;;;;;;;;;;7.10;96.90;;;;;;5090603;28;19908;-70
2021/12/14 00:25:42;;;;;;;;;;;7.10;97.00;;;;;;5058833;28;20257;-70
2021/12/14 00:28:09;;;;;;;;;;;7.10;96.80;;;;;;5091561;28;19918;-70
2021/12/14 00:30:36;;;;;;;;;;;7.10;96.90;;;;;;5100022;28;19912;-70
2021/12/14 00:33:02;;;;;;;;;;;7.10;96.90;;;;;;5096806;28;19965;-70
2021/12/14 00:35:28;;;;;;;;;;;7.10;96.90;;;;;;5087581;28;19927;-70
2021/12/14 00:37:54;;;;;;;;;;;7.10;96.90;;;;;;5089938;28;19920;-70
2021/12/14 00:40:25;;;;;;;;;;;7.10;96.90;;;;;;5096283;28;19955;-70
2021/12/14 00:42:51;;;;;;;;;;;7.10;96.90;;;;;;5093509;28;19918;-70
2021/12/14 00:45:17;;;;;;;;;;;7.10;96.90;;;;;;5089286;28;19951;-70
2021/12/14 00:47:43;;;;;;;;;;;7.10;96.80;;;;;;5129496;27;19912;-70
2021/12/14 00:50:09;;;;;;;;;;;7.10;96.90;;;;;;5097161;28;19990;-70
2021/12/14 00:52:35;;;;;;;;;;;7.10;96.90;;;;;;5100433;28;20027;-70
2021/12/14 00:55:02;;;;;;;;;;;7.10;97.20;;;;;;5091732;28;19923;-70
2021/12/14 00:57:29;;;;;;;;;;;7.10;96.90;;;;;;5090843;28;19919;-70
2021/12/14 00:59:55;;;;;;;;;;;7.10;96.90;;;;;;5091823;28;19951;-70
2021/12/14 01:02:22;;;;;;;;;;;7.10;96.90;;;;;;5098041;28;20399;-70
2021/12/14 01:04:50;;;;;;;;;;;7.10;96.90;;;;;;5090757;28;20418;-70
2021/12/14 01:07:18;;;;;;;;;;;7.10;96.90;;;;;;5095448;28;19918;-70
2021/12/14 01:09:46;;;;;;;;;;;7.10;96.90;;;;;;5094918;28;20402;-70
2021/12/14 01:12:18;;;;;;;;;;;7.10;96.80;;;;;;5094591;28;20315;-70
2021/12/14 01:15:12;;;;;;;;;;;7.10;96.90;;;;;;5094525;28;20356;-70
2021/12/14 01:17:42;;;;;;;;;;;7.10;96.90;;;;;;5094247;28;19920;-70
2021/12/14 01:20:11;;;;;;;;;;;7.10;96.90;;;;;;5091097;28;19958;-70
2021/12/14 01:22:42;;;;;;;;;;;;;;;;;;;;;
2021/12/14 01:25:21;;;;;;;;;;;7.10;96.90;;;;;;5091845;28;19954;-70
2021/12/14 01:27:55;;;;;;;;;;;7.10;96.90;;;;;;5088863;28;19927;-70
2021/12/14 01:30:21;;;;;;;;;;;7.10;96.90;;;;;;5091223;28;19908;-70
2021/12/14 01:32:48;;;;;;;;;;;7.10;96.90;;;;;;5089008;28;19977;-70
2021/12/14 01:35:16;;;;;;;;;;;7.10;96.90;;;;;;5089780;28;19948;-70
2021/12/14 01:37:48;;;;;;;;;;;7.10;96.90;;;;;;5086768;28;20435;-70
2021/12/14 01:40:29;;;;;;;;;;;7.10;96.80;;;;;;5089061;28;19963;-70
2021/12/14 01:42:55;;;;;;;;;;;7.10;96.90;;;;;;5090042;28;19920;-70
2021/12/14 01:45:21;;;;;;;;;;;7.10;96.90;;;;;;5084153;28;19916;-70
2021/12/14 01:47:49;;;;;;;;;;;7.10;96.90;;;;;;5087586;28;20000;-70
2021/12/14 01:50:20;;;;;;;;;;;7.10;96.90;;;;;;5091203;28;19923;-70
2021/12/14 01:52:46;;;;;;;;;;;7.10;96.80;;;;;;5088717;28;19912;-70
2021/12/14 01:55:11;;;;;;;;;;;7.10;96.90;;;;;;5090071;28;19938;-70
2021/12/14 01:57:38;;;;;;;;;;;7.10;96.80;;;;;;5088844;28;19951;-70
2021/12/14 02:00:06;;;;;;;;;;;7.10;96.80;;;;;;5090382;28;19915;-70
2021/12/14 02:02:42;;;;;;;;;;;7.10;96.80;;;;;;5087073;28;19912;-70
2021/12/14 02:05:14;;;;;;;;;;;7.10;96.80;;;;;;5088530;28;20297;-70
2021/12/14 02:07:39;;;;;;;;;;;7.10;96.90;;;;;;5088068;28;19927;-70
2021/12/14 02:10:10;;;;;;;;;;;7.10;96.90;;;;;;5090298;28;19915;-70
2021/12/14 02:12:39;;;;;;;;;;;7.10;96.80;;;;;;5091006;28;19991;-70
2021/12/14 02:15:09;;;;;;;;;;;7.10;96.80;;;;;;5096113;28;20415;-70
2021/12/14 02:17:34;;;;;;;;;;;7.10;96.90;;;;;;5094134;28;19943;-70
2021/12/14 02:20:00;;;;;;;;;;;7.10;96.90;;;;;;5089452;28;19951;-70
2021/12/14 02:22:26;;;;;;;;;;;7.10;96.90;;;;;;5094726;28;20356;-70
2021/12/14 02:24:51;;;;;;;;;;;7.00;96.90;;;;;;5085945;28;19938;-70
2021/12/14 02:27:17;;;;;;;;;;;7.10;96.90;;;;;;5092009;28;19921;-70
2021/12/14 02:29:44;;;;;;;;;;;7.10;96.90;;;;;;5097465;28;19961;-70
2021/12/14 02:32:10;;;;;;;;;;;7.10;96.90;;;;;;5090681;28;19916;-70
2021/12/14 02:34:37;;;;;;;;;;;7.10;96.90;;;;;;5096099;28;19923;-70
2021/12/14 02:37:03;;;;;;;;;;;7.10;97.00;;;;;;5085212;28;19912;-70
2021/12/14 02:42:07;;;;;;;;;;;7.00;96.90;;;;;;5087452;28;19992;-70
2021/12/14 02:44:33;;;;;;;;;;;7.10;96.90;;;;;;5091744;28;19969;-70
2021/12/14 02:47:01;;;;;;;;;;;7.10;97.00;;;;;;5097143;28;19916;-70
2021/12/14 02:49:29;;;;;;;;;;;7.10;96.90;;;;;;5087866;28;19994;-70
2021/12/14 02:52:14;;;;;;;;;;;7.10;96.90;;;;;;5096731;28;19932;-70
2021/12/14 02:54:39;;;;;;;;;;;7.00;97.00;;;;;;5089572;28;19963;-70
2021/12/14 02:57:07;;;;;;;;;;;7.00;97.00;;;;;;5091160;28;19920;-70
2021/12/14 02:59:34;;;;;;;;;;;7.00;96.90;;;;;;5091761;28;20001;-70
2021/12/14 03:02:04;;;;;;;;;;;7.00;96.90;;;;;;5099202;28;19920;-70
2021/12/14 03:04:30;;;;;;;;;;;7.00;97.00;;;;;;5089188;28;19986;-70
2021/12/14 03:06:58;;;;;;;;;;;7.10;97.00;;;;;;5095828;28;20395;-70
2021/12/14 03:09:39;;;;;;;;;;;;;;;;;;;;;
2021/12/14 03:12:02;;;;;;;;;;;7.00;96.90;;;;;;5095103;28;19930;-70
2021/12/14 03:14:28;;;;;;;;;;;7.10;97.00;;;;;;5125339;27;19915;-70
2021/12/14 03:16:53;;;;;;;;;;;7.00;97.00;;;;;;5092038;28;20384;-70
2021/12/14 03:19:19;;;;;;;;;;;7.00;97.00;;;;;;5094556;28;19908;-70
2021/12/14 03:21:46;;;;;;;;;;;7.00;97.00;;;;;;5089437;28;19951;-70
2021/12/14 03:24:13;;;;;;;;;;;7.00;96.90;;;;;;5102284;28;20376;-70
2021/12/14 03:26:44;;;;;;;;;;;7.00;96.90;;;;;;5098533;28;19912;-70
2021/12/14 03:29:12;;;;;;;;;;;7.00;96.90;;;;;;5092429;28;19912;-70
2021/12/14 03:31:44;;;;;;;;;;;7.00;96.90;;;;;;5088898;28;19950;-70
2021/12/14 03:34:15;;;;;;;;;;;7.00;96.90;;;;;;5094157;28;19912;-70
2021/12/14 03:36:44;;;;;;;;;;;7.00;96.90;;;;;;5093447;28;19914;-70
2021/12/14 03:39:12;;;;;;;;;;;7.00;97.00;;;;;;5096796;28;19918;-70
2021/12/14 03:41:40;;;;;;;;;;;7.00;97.00;;;;;;5091380;28;19912;-70
2021/12/14 03:44:11;;;;;;;;;;;7.00;96.90;;;;;;5093340;28;19916;-70
2021/12/14 03:46:52;;;;;;;;;;;7.00;97.00;;;;;;5089396;28;21531;-70
2021/12/14 03:49:19;;;;;;;;;;;7.00;97.00;;;;;;5090753;28;19994;-70
2021/12/14 03:51:45;;;;;;;;;;;7.00;96.90;;;;;;5092283;28;19912;-70
2021/12/14 03:54:13;;;;;;;;;;;7.00;96.90;;;;;;5130029;27;19919;-70
2021/12/14 03:56:38;;;;;;;;;;;7.00;96.90;;;;;;5093829;28;19969;-70
2021/12/14 03:59:04;;;;;;;;;;;7.00;96.90;;;;;;5091637;28;19919;-70
2021/12/14 04:01:32;;;;;;;;;;;7.00;97.00;;;;;;5092317;28;20322;-70
2021/12/14 04:04:01;;;;;;;;;;;7.00;97.00;;;;;;5085602;28;19928;-70
2021/12/14 04:06:27;;;;;;;;;;;7.00;97.00;;;;;;5096693;28;19920;-70
2021/12/14 04:08:52;;;;;;;;;;;7.00;97.00;;;;;;5096453;28;19920;-70
2021/12/14 04:11:18;;;;;;;;;;;7.00;97.00;;;;;;5102854;28;19915;-70
2021/12/14 04:13:50;;;;;;;;;;;7.00;96.90;;;;;;5093139;28;19915;-70
2021/12/14 04:16:17;;;;;;;;;;;7.00;96.90;;;;;;5091192;28;20015;-70
2021/12/14 04:18:43;;;;;;;;;;;7.00;97.00;;;;;;5095333;28;19912;-70
2021/12/14 04:21:08;;;;;;;;;;;7.00;96.90;;;;;;5092130;28;19923;-70
2021/12/14 04:23:37;;;;;;;;;;;7.00;96.80;;;;;;5097668;28;19919;-70
2021/12/14 04:26:03;;;;;;;;;;;7.00;96.90;;;;;;5120161;27;20361;-70
2021/12/14 04:28:32;;;;;;;;;;;7.00;96.90;;;;;;5094484;28;19916;-70
2021/12/14 04:30:58;;;;;;;;;;;7.00;96.90;;;;;;5086702;28;19912;-70
2021/12/14 04:33:28;;;;;;;;;;;7.00;96.90;;;;;;5093635;28;19973;-70
2021/12/14 04:35:53;;;;;;;;;;;7.00;96.80;;;;;;5095300;28;19922;-70
2021/12/14 04:38:24;;;;;;;;;;;7.00;96.90;;;;;;5083375;28;19917;-70
2021/12/14 04:52:08;;;;;;;;;;;7.00;96.80;;;;;;5091891;28;19919;-70
2021/12/14 04:55:06;;;;;;;;;;;7.00;96.90;;;;;;5090524;28;19916;-70
2021/12/14 04:57:32;;;;;;;;;;;7.00;96.90;;;;;;5065314;28;19920;-70
2021/12/14 05:00:13;;;;;;;;;;;7.00;96.80;;;;;;5087631;28;19928;-70
2021/12/14 05:02:39;;;;;;;;;;;7.00;97.10;;;;;;5093641;28;19920;-70
2021/12/14 05:05:05;;;;;;;;;;;7.00;96.90;;;;;;5099638;28;20650;-70
2021/12/14 05:09:56;;;;;;;;;;;7.00;96.90;;;;;;5093332;28;19923;-70
2021/12/14 05:12:25;;;;;;;;;;;7.00;96.90;;;;;;5091634;28;19912;-70
2021/12/14 05:14:51;;;;;;;;;;;7.00;96.90;;;;;;5086404;28;19917;-70
2021/12/14 05:17:18;;;;;;;;;;;7.00;96.90;;;;;;5091859;28;19920;-70
2021/12/14 05:19:45;;;;;;;;;;;7.00;97.00;;;;;;5089689;28;19935;-70
2021/12/14 05:22:13;;;;;;;;;;;7.00;97.00;;;;;;5089118;28;20480;-70
2021/12/14 05:24:40;;;;;;;;;;;7.00;97.00;;;;;;5089769;28;20053;-70
2021/12/14 05:27:07;;;;;;;;;;;6.90;96.90;;;;;;5088813;28;20545;-70
2021/12/14 05:29:33;;;;;;;;;;;7.00;97.00;;;;;;5087920;28;19952;-70
2021/12/14 05:32:00;;;;;;;;;;;7.00;97.00;;;;;;5086619;28;19958;-71
2021/12/14 05:34:26;;;;;;;;;;;7.00;97.00;;;;;;5089586;28;19908;-70
2021/12/14 05:36:52;;;;;;;;;;;6.90;97.00;;;;;;5087910;28;19955;-70
2021/12/14 05:44:16;;;;;;;;;;;6.90;97.00;;;;;;5104727;28;20304;-70
2021/12/14 05:46:49;;;;;;;;;;;6.90;96.90;;;;;;5089574;28;19920;-70
2021/12/14 05:49:16;;;;;;;;;;;6.90;97.00;;;;;;5104748;28;19908;-70
2021/12/14 05:51:41;;;;;;;;;;;7.00;97.00;;;;;;5089399;28;19912;-70
2021/12/14 05:54:07;;;;;;;;;;;7.00;97.00;;;;;;5098522;28;19909;-70
2021/12/14 05:56:33;;;;;;;;;;;6.90;96.90;;;;;;5086842;28;20299;-70
2021/12/14 05:58:59;;;;;;;;;;;6.90;97.00;;;;;;5093189;28;20472;-70
2021/12/14 06:01:27;;;;;;;;;;;6.90;97.00;;;;;;5089597;28;19912;-70
2021/12/14 06:03:59;;;;;;;;;;;7.00;97.00;;;;;;5097806;28;19916;-70
2021/12/14 06:06:28;;;;;;;;;;;6.90;97.00;;;;;;5091334;28;19972;-70
2021/12/14 06:09:06;;;;;;;;;;;7.00;97.10;;;;;;5102625;28;19935;-70
2021/12/14 06:11:32;;;;;;;;;;;6.90;96.90;;;;;;5103163;28;20409;-70
2021/12/14 06:13:57;;;;;;;;;;;6.90;96.90;;;;;;5098630;28;20003;-70
2021/12/14 06:16:28;;;;;;;;;;;6.90;97.00;;;;;;5087101;28;20562;-70
2021/12/14 06:18:54;;;;;;;;;;;6.90;97.00;;;;;;5098400;28;19915;-70
2021/12/14 06:21:32;;;;;;;;;;;6.90;97.00;;;;;;5087810;28;19920;-70
2021/12/14 06:24:02;;;;;;;;;;;6.90;96.90;;;;;;5098269;28;19912;-70
2021/12/14 06:26:32;;;;;;;;;;;6.90;96.90;;;;;;5088731;28;19912;-71
2021/12/14 06:29:03;;;;;;;;;;;7.00;97.00;;;;;;5095383;28;19915;-70
2021/12/14 06:31:29;;;;;;;;;;;6.90;97.00;;;;;;5093433;28;19912;-70
2021/12/14 06:33:54;;;;;;;;;;;6.90;97.00;;;;;;5086383;28;19920;-70
2021/12/14 06:36:51;;;;;;;;;;;6.90;97.00;;;;;;5094737;28;19936;-70
2021/12/14 06:39:17;;;;;;;;;;;6.90;97.00;;;;;;5086522;28;19940;-71
2021/12/14 06:41:43;;;;;;;;;;;6.90;97.00;;;;;;5092288;28;20261;-70
2021/12/14 06:44:08;;;;;;;;;;;6.90;97.00;;;;;;5085776;28;19916;-70
2021/12/14 06:46:38;;;;;;;;;;;6.90;97.00;;;;;;5092112;28;19912;-70
2021/12/14 06:49:08;;;;;;;;;;;6.90;97.00;;;;;;5087853;28;20301;-70
2021/12/14 06:51:36;;;;;;;;;;;6.90;97.00;;;;;;5095707;28;20417;-70
2021/12/14 06:54:05;;;;;;;;;;;6.90;97.20;;;;;;5087924;28;20327;-71
2021/12/14 06:56:31;;;;;;;;;;;6.90;97.00;;;;;;5093149;28;19919;-70
2021/12/14 06:58:59;;;;;;;;;;;6.90;96.90;;;;;;5092958;28;20298;-71
2021/12/14 07:01:28;;;;;;;;;;;6.90;96.90;;;;;;5093871;28;19908;-70
2021/12/14 07:03:57;;;;;;;;;;;6.90;96.90;;;;;;5091454;28;19920;-71
2021/12/14 07:06:27;;;;;;;;;;;6.90;96.90;;;;;;5091911;28;19912;-71
2021/12/14 07:08:54;;;;;;;;;;;6.90;96.90;;;;;;5083762;28;20372;-70
2021/12/14 07:11:21;;;;;;;;;;;6.90;96.90;;;;;;5091507;28;19977;-71
2021/12/14 07:13:48;;;;;;;;;;;6.90;96.90;;;;;;5092668;28;19919;-70
2021/12/14 07:16:19;;;;;;;;;;;6.90;96.90;;;;;;5094536;28;19924;-71
2021/12/14 07:18:47;;;;;;;;;;;6.90;96.90;;;;;;5094217;28;19908;-70
2021/12/14 07:21:12;;;;;;;;;;;6.90;96.90;;;;;;5090112;28;19908;-70
2021/12/14 07:23:38;;;;;;;;;;;6.90;96.90;;;;;;5083229;28;20007;-70
2021/12/14 07:26:05;;;;;;;;;;;6.90;96.90;;;;;;5090886;28;19944;-70
2021/12/14 07:28:32;;;;;;;;;;;6.90;96.90;;;;;;5091855;28;19989;-70
2021/12/14 07:31:02;;;;;;;;;;;6.90;96.90;;;;;;5090594;28;19920;-70
2021/12/14 07:33:30;;;;;;;;;;;6.90;96.90;;;;;;5085315;28;19908;-70
2021/12/14 07:36:04;;;;;;;;;;;6.90;96.90;;;;;;5092913;28;19939;-70
2021/12/14 07:38:29;;;;;;;;;;;6.90;96.90;;;;;;5091295;28;19995;-70
2021/12/14 07:40:55;;;;;;;;;;;6.90;96.90;;;;;;5102232;27;20043;-71
2021/12/14 07:43:23;;;;;;;;;;;6.90;96.90;;;;;;5078793;28;19913;-70
2021/12/14 07:45:54;;;;;;;;;;;6.90;96.90;;;;;;5086844;28;19920;-70
2021/12/14 07:48:21;;;;;;;;;;;6.90;96.80;;;;;;5100783;28;19915;-70
2021/12/14 07:50:46;;;;;;;;;;;6.90;96.90;;;;;;5088170;28;20072;-70
2021/12/14 07:53:12;;;;;;;;;;;6.90;96.80;;;;;;5083163;28;20028;-70
2021/12/14 07:55:39;;;;;;;;;;;6.90;96.80;;;;;;5088997;28;20109;-70
2021/12/14 07:58:05;;;;;;;;;;;6.90;96.80;;;;;;5087415;28;20380;-70
2021/12/14 08:00:35;;;;;;;;;;;6.90;96.80;;;;;;5089855;28;20003;-70
2021/12/14 08:03:02;;;;;;;;;;;6.90;96.90;;;;;;5085964;28;19919;-70
2021/12/14 08:05:32;;;;;;;;;;;6.90;96.80;;;;;;5092076;28;20474;-71
2021/12/14 08:08:15;;;;;;;;;;;6.90;96.80;;;;;;5097039;28;20512;-71
2021/12/14 08:10:49;;;;;;;;;;;6.90;96.80;;;;;;5093848;28;19920;-70
2021/12/14 08:13:15;;;;;;;;;;;6.90;96.90;;;;;;5102001;28;20006;-70
2021/12/14 08:15:42;;;;;;;;;;;6.90;96.90;;;;;;5095766;28;20375;-70
2021/12/14 08:18:13;;;;;;;;;;;6.90;96.80;;;;;;5094172;28;19912;-70
2021/12/14 08:20:48;;;;;;;;;;;6.90;96.90;;;;;;5093098;28;19912;-70
2021/12/14 08:23:16;;;;;;;;;;;6.90;96.80;;;;;;5105369;28;20424;-71
2021/12/14 08:25:41;;;;;;;;;;;6.90;96.90;;;;;;5104638;27;19916;-70
2021/12/14 08:28:07;;;;;;;;;;;6.90;96.90;;;;;;5088377;28;20144;-71
2021/12/14 08:30:34;;;;;;;;;;;6.90;96.90;;;;;;5091547;28;19915;-71
2021/12/14 08:33:00;;;;;;;;;;;6.90;96.80;;;;;;5100041;28;19919;-71
2021/12/14 08:35:26;;;;;;;;;;;6.90;96.90;;;;;;5091386;28;19915;-70
2021/12/14 08:37:58;;;;;;;;;;;6.90;96.80;;;;;;5087735;28;19912;-70
2021/12/14 08:40:28;;;;;;;;;;;6.90;96.90;;;;;;5089082;28;19947;-70
2021/12/14 08:43:03;;;;;;;;;;;6.90;96.90;;;;;;5087673;28;20571;-70
2021/12/14 08:45:33;;;;;;;;;;;7.00;96.90;;;;;;5091101;28;19923;-70
2021/12/14 08:48:02;;;;;;;;;;;6.90;96.90;;;;;;5089718;28;19912;-71
2021/12/14 08:50:29;;;;;;;;;;;6.90;96.90;;;;;;5088356;28;20037;-71
2021/12/14 08:52:55;;;;;;;;;;;6.90;96.90;;;;;;5090850;28;19908;-71
2021/12/14 08:55:22;;;;;;;;;;;6.90;96.90;;;;;;5093960;28;21116;-70
2021/12/14 08:57:48;;;;;;;;;;;7.00;96.90;;;;;;5077273;28;19913;-70
2021/12/14 09:00:17;;;;;;;;;;;6.90;96.80;;;;;;5091941;28;20613;-71
2021/12/14 09:02:45;;;;;;;;;;;7.00;96.90;;;;;;5089685;28;19915;-70
2021/12/14 09:05:19;;;;;;;;;;;7.00;96.90;;;;;;5087760;28;19946;-70
2021/12/14 09:07:44;;;;;;;;;;;7.00;96.90;;;;;;5091868;28;19908;-70
2021/12/14 09:10:13;;;;;;;;;;;7.00;96.90;;;;;;5088496;28;19912;-70
2021/12/14 09:12:41;;;;;;;;;;;7.00;96.90;;;;;;5076078;28;19912;-70
2021/12/14 09:15:27;;;;;;;;;;;6.90;96.90;;;;;;5090856;28;19927;-70
2021/12/14 09:17:54;;;;;;;;;;;7.00;96.90;;;;;;5070514;28;19915;-70
2021/12/14 09:20:23;;;;;;;;;;;7.00;96.90;;;;;;5091751;28;19927;-70
2021/12/14 09:22:51;;;;;;;;;;;7.00;96.90;;;;;;5089682;28;19959;-71
2021/12/14 09:25:18;;;;;;;;;;;7.00;96.90;;;;;;5089794;28;19916;-70
2021/12/14 09:27:44;;;;;;;;;;;7.00;96.90;;;;;;5090357;28;19915;-70
2021/12/14 09:30:11;;;;;;;;;;;7.00;96.90;;;;;;5089592;28;19912;-70
2021/12/14 09:32:37;;;;;;;;;;;7.00;96.90;;;;;;5090631;28;19918;-71
2021/12/14 09:35:05;;;;;;;;;;;7.00;96.90;;;;;;5089892;28;19928;-71
2021/12/14 09:37:32;;;;;;;;;;;7.00;96.90;;;;;;5079823;28;19916;-71
2021/12/14 09:40:00;;;;;;;;;;;7.10;96.90;;;;;;5087776;28;20270;-71
2021/12/14 09:42:27;;;;;;;;;;;7.00;96.90;;;;;;5088004;28;19912;-70
2021/12/14 09:44:54;;;;;;;;;;;7.10;96.90;;;;;;5093332;28;19926;-71
2021/12/14 09:47:25;;;;;;;;;;;7.10;96.90;;;;;;5087536;28;20265;-70
2021/12/14 09:49:50;;;;;;;;;;;7.10;96.90;;;;;;5091102;28;20568;-70
2021/12/14 09:52:19;;;;;;;;;;;7.10;96.90;;;;;;5091891;28;19912;-71
2021/12/14 09:54:45;;;;;;;;;;;7.10;97.00;;;;;;5090172;28;20023;-70
2021/12/14 09:57:13;;;;;;;;;;;7.20;96.90;;;;;;5090777;28;20364;-71
2021/12/14 09:59:40;;;;;;;;;;;7.10;96.90;;;;;;5090024;28;19916;-71
2021/12/14 10:02:26;;;;;;;;;;;7.20;96.90;;;;;;5103053;28;19915;-70
2021/12/14 10:05:02;;;;;;;;;;;7.20;96.90;;;;;;5095853;28;19993;-71
2021/12/14 10:07:28;;;;;;;;;;;7.20;96.90;;;;;;5102250;28;19918;-71
2021/12/14 10:09:55;;;;;;;;;;;7.20;96.90;;;;;;5097195;28;20361;-71
2021/12/14 10:14:50;;;;;;;;;;;7.20;96.90;;;;;;5093264;28;19920;-70
2021/12/14 10:17:20;;;;;;;;;;;7.20;96.90;;;;;;5100611;28;19934;-71
2021/12/14 10:19:47;;;;;;;;;;;7.20;97.00;;;;;;5094472;28;20558;-70
2021/12/14 10:22:23;;;;;;;;;;;7.20;97.00;;;;;;5098320;28;19919;-70
2021/12/14 10:24:57;;;;;;;;;;;7.20;96.90;;;;;;5094345;28;19920;-70
2021/12/14 10:27:24;;;;;;;;;;;7.20;96.80;;;;;;5092882;28;19911;-71
2021/12/14 10:29:49;;;;;;;;;;;7.20;96.80;;;;;;5107677;27;19919;-70
2021/12/14 10:32:17;;;;;;;;;;;7.30;96.90;;;;;;5095366;28;19916;-70
2021/12/14 10:34:46;;;;;;;;;;;7.30;96.90;;;;;;5092909;28;19912;-70
2021/12/14 10:37:26;;;;;;;;;;;7.30;96.80;;;;;;5088317;28;20003;-70
2021/12/14 10:45:14;;;;;;;;;;;7.30;96.80;;;;;;5091577;28;19923;-70
2021/12/14 10:47:41;;;;;;;;;;;7.40;96.80;;;;;;5089595;28;19912;-70
2021/12/14 10:50:10;;;;;;;;;;;7.40;96.80;;;;;;5091741;28;19939;-70
2021/12/14 10:52:40;;;;;;;;;;;7.40;96.70;;;;;;5088008;28;19934;-70
2021/12/14 10:55:09;;;;;;;;;;;7.40;96.70;;;;;;5095002;28;20320;-70
2021/12/14 10:57:35;;;;;;;;;;;7.40;96.70;;;;;;5095736;28;20519;-70
2021/12/14 11:00:03;;;;;;;;;;;7.40;96.70;;;;;;5092186;28;19927;-70
2021/12/14 11:02:29;;;;;;;;;;;7.40;96.70;;;;;;5091649;28;19935;-70
2021/12/14 11:04:58;;;;;;;;;;;7.40;96.60;;;;;;5092224;28;20345;-70
2021/12/14 11:07:26;;;;;;;;;;;7.50;96.70;;;;;;5081654;28;19912;-70
2021/12/14 11:09:55;;;;;;;;;;;7.50;96.60;;;;;;5092195;28;19964;-71
2021/12/14 11:12:23;;;;;;;;;;;7.50;96.60;;;;;;5088604;28;20555;-71
2021/12/14 11:14:50;;;;;;;;;;;7.50;96.50;;;;;;5090648;28;19916;-70
2021/12/14 11:20:09;;;;;;;;;;;7.60;96.60;;;;;;5093725;28;19916;-70
2021/12/14 11:22:40;;;;;;;;;;;7.60;96.60;;;;;;5098486;28;20006;-70
2021/12/14 11:25:08;;;;;;;;;;;7.60;96.50;;;;;;5091737;28;20388;-71
2021/12/14 11:27:36;;;;;;;;;;;7.70;96.50;;;;;;5089234;28;19912;-70
2021/12/14 11:30:07;;;;;;;;;;;7.70;96.50;;;;;;5089339;28;19917;-70
2021/12/14 11:32:33;;;;;;;;;;;7.70;96.50;;;;;;5102767;28;19919;-70
2021/12/14 11:35:01;;;;;;;;;;;7.70;96.40;;;;;;5093696;28;19920;-70
2021/12/14 11:37:33;;;;;;;;;;;7.70;96.40;;;;;;5101088;28;19915;-70
2021/12/14 11:40:00;;;;;;;;;;;7.70;96.60;;;;;;5089176;28;20038;-70
2021/12/14 11:42:27;;;;;;;;;;;7.80;96.40;;;;;;5099514;28;19943;-71
2021/12/14 11:45:00;;;;;;;;;;;7.80;96.40;;;;;;5092271;28;19916;-70
2021/12/14 11:49:57;;;;;;;;;;;7.80;96.40;;;;;;5093479;28;20060;-70
2021/12/14 11:52:38;;;;;;;;;;;7.80;96.30;;;;;;5092092;28;19959;-70
2021/12/14 11:55:15;;;;;;;;;;;7.80;96.40;;;;;;5090021;28;19961;-70
2021/12/14 11:57:40;;;;;;;;;;;7.80;96.40;;;;;;5100714;28;19931;-70
2021/12/14 12:00:12;;;;;;;;;;;7.80;96.30;;;;;;5086639;28;19916;-70
2021/12/14 12:02:37;;;;;;;;;;;7.80;96.40;;;;;;5096256;28;19926;-70
2021/12/14 12:05:17;;;;;;;;;;;7.80;96.50;;;;;;5091053;28;19977;-70
2021/12/14 12:10:41;;;;;;;;;;;7.90;96.40;;;;;;5092407;28;20300;-71
2021/12/14 12:13:06;;;;;;;;;;;7.90;96.40;;;;;;5096075;28;20618;-70
2021/12/14 12:15:37;;;;;;;;;;;7.90;96.50;;;;;;5091246;28;19912;-70
2021/12/14 12:18:02;;;;;;;;;;;7.90;96.50;;;;;;5089038;28;19919;-70
2021/12/14 12:20:33;;;;;;;;;;;7.90;96.80;;;;;;5092464;28;20269;-70
2021/12/14 12:23:01;;;;;;;;;;;7.90;96.50;;;;;;5086905;28;20029;-70
2021/12/14 12:25:29;;;;;;;;;;;7.90;96.50;;;;;;5089343;28;19920;-70
2021/12/14 12:27:54;;;;;;;;;;;7.90;96.50;;;;;;5082913;28;19916;-70
2021/12/14 12:30:34;;;;;;;;;;;7.90;96.50;;;;;;5091219;28;19943;-70
2021/12/14 12:33:02;;;;;;;;;;;7.90;96.40;;;;;;5087278;28;19916;-70
2021/12/14 12:35:37;;;;;;;;;;;7.90;96.50;;;;;;5100242;28;20388;-70
2021/12/14 12:38:16;;;;;;;;;;;7.90;96.50;;;;;;5081167;28;19912;-70
2021/12/14 12:40:48;;;;;;;;;;;7.90;96.40;;;;;;5090033;28;19946;-70
2021/12/14 12:43:15;;;;;;;;;;;8.00;96.50;;;;;;5087328;28;19913;-70
2021/12/14 12:45:44;;;;;;;;;;;8.00;96.40;;;;;;5090602;28;19960;-70
2021/12/14 12:48:10;;;;;;;;;;;8.00;96.30;;;;;;5090192;28;19912;-70
2021/12/14 12:50:37;;;;;;;;;;;8.00;96.40;;;;;;5078867;28;19915;-70
2021/12/14 12:53:03;;;;;;;;;;;8.00;96.40;;;;;;5082918;28;19944;-70
2021/12/14 12:55:31;;;;;;;;;;;8.00;96.40;;;;;;5093029;28;20332;-70
2021/12/14 12:58:10;;;;;;;;;;;8.00;96.30;;;;;;5091641;28;19920;-70
2021/12/14 13:00:40;;;;;;;;;;;8.10;96.30;;;;;;5103162;28;19908;-71
2021/12/14 13:03:29;;;;;;;;;;;8.10;96.30;;;;;;5091763;28;19923;-70
2021/12/14 13:05:57;;;;;;;;;;;8.10;96.30;;;;;;5095235;28;19991;-70
2021/12/14 13:08:34;;;;;;;;;;;8.10;96.30;;;;;;5092863;28;19916;-70
2021/12/14 13:11:12;;;;;;;;;;;8.10;96.40;;;;;;5092434;28;20372;-70
2021/12/14 13:13:43;;;;;;;;;;;8.10;96.50;;;;;;5088282;28;19962;-70
2021/12/14 13:16:08;;;;;;;;;;;8.10;96.40;;;;;;5098916;28;19919;-70
2021/12/14 13:18:36;;;;;;;;;;;8.10;96.50;;;;;;5086878;28;20010;-70
2021/12/14 13:21:11;;;;;;;;;;;8.10;96.50;;;;;;5083327;28;20007;-71
2021/12/14 13:23:58;;;;;;;;;;;8.10;96.40;;;;;;5087843;28;19938;-70
2021/12/14 13:26:35;;;;;;;;;;;8.10;96.40;;;;;;5085856;28;20539;-70
2021/12/14 13:29:21;;;;;;;;;;;8.10;96.50;;;;;;5103570;28;19920;-70
2021/12/14 13:31:58;;;;;;;;;;;8.10;96.40;;;;;;5079133;28;19920;-70
2021/12/14 13:34:24;;;;;;;;;;;8.10;96.40;;;;;;5091940;28;19951;-70
2021/12/14 13:36:51;;;;;;;;;;;8.10;96.40;;;;;;5092243;28;20540;-70
2021/12/14 13:39:17;;;;;;;;;;;8.10;96.40;;;;;;5086160;28;19947;-70
2021/12/14 13:42:01;;;;;;;;;;;8.10;96.50;;;;;;5098472;28;19956;-70
2021/12/14 13:44:31;;;;;;;;;;;8.10;96.60;;;;;;5084584;28;20515;-70
2021/12/14 13:46:57;;;;;;;;;;;8.10;96.70;;;;;;5081118;28;19920;-72
2021/12/14 13:49:23;;;;;;;;;;;8.10;96.50;;;;;;5086170;28;19954;-72
2021/12/14 13:51:49;;;;;;;;;;;8.10;96.40;;;;;;5081069;28;20051;-72
2021/12/14 13:54:15;;;;;;;;;;;8.10;96.50;;;;;;5085187;28;20381;-73
2021/12/14 13:56:42;;;;;;;;;;;8.10;96.50;;;;;;5089200;28;19916;-72
2021/12/14 13:59:08;;;;;;;;;;;8.10;96.50;;;;;;5090585;28;19908;-71
2021/12/14 14:01:41;;;;;;;;;;;8.10;96.50;;;;;;5094674;28;19943;-70
2021/12/14 14:04:08;;;;;;;;;;;8.10;96.60;;;;;;5089610;28;20372;-70
2021/12/14 14:06:35;;;;;;;;;;;8.20;97.00;;;;;;5091297;28;19919;-70
2021/12/14 14:09:07;;;;;;;;;;;8.10;96.70;;;;;;5089395;28;19912;-71
2021/12/14 14:11:35;;;;;;;;;;;8.10;96.70;;;;;;5089882;28;20578;-70
2021/12/14 14:14:03;;;;;;;;;;;8.10;96.70;;;;;;5091785;28;19974;-70
2021/12/14 14:16:41;;;;;;;;;;;8.10;96.60;;;;;;5101050;28;19924;-70
2021/12/14 14:19:09;;;;;;;;;;;8.10;96.70;;;;;;5090849;28;20025;-70
2021/12/14 14:21:34;;;;;;;;;;;8.10;96.70;;;;;;5092627;28;19912;-70
2021/12/14 14:24:01;;;;;;;;;;;8.10;96.60;;;;;;5088343;28;19911;-70
2021/12/14 14:26:33;;;;;;;;;;;8.10;96.60;;;;;;5087453;28;19920;-71
2021/12/14 14:29:07;;;;;;;;;;;8.10;96.60;;;;;;5086435;28;19920;-70
2021/12/14 14:31:39;;;;;;;;;;;8.10;96.70;;;;;;5090757;28;19908;-70
2021/12/14 14:34:15;;;;;;;;;;;8.10;96.80;;;;;;5094613;28;20004;-70
2021/12/14 14:36:43;;;;;;;;;;;8.10;96.80;;;;;;5099950;28;19915;-70
2021/12/14 14:39:11;;;;;;;;;;;8.10;96.80;;;;;;5087891;28;19964;-70
2021/12/14 14:41:39;;;;;;;;;;;8.10;96.80;;;;;;5086667;28;20036;-70
2021/12/14 14:44:07;;;;;;;;;;;8.10;96.80;;;;;;5089969;28;19916;-70
2021/12/14 14:46:46;;;;;;;;;;;8.10;96.90;;;;;;5086933;28;19968;-70
2021/12/14 14:49:14;;;;;;;;;;;8.00;96.80;;;;;;5087928;28;20372;-70
2021/12/14 14:51:43;;;;;;;;;;;8.00;96.80;;;;;;5093133;28;20564;-72
2021/12/14 14:54:41;;;;;;;;;;;8.00;96.80;;;;;;5089338;28;19912;-72
2021/12/14 14:57:06;;;;;;;;;;;8.10;96.80;;;;;;5078635;28;19924;-72
2021/12/14 14:59:35;;;;;;;;;;;8.00;96.80;;;;;;5091097;28;19965;-71
2021/12/14 15:02:01;;;;;;;;;;;8.00;96.80;;;;;;5088290;28;19970;-70
2021/12/14 15:04:26;;;;;;;;;;;8.00;96.80;;;;;;5084985;28;20365;-70
2021/12/14 15:06:53;;;;;;;;;;;8.00;96.80;;;;;;5088500;28;19986;-70
2021/12/14 15:09:26;;;;;;;;;;;8.00;96.80;;;;;;5089611;28;19989;-71
2021/12/14 15:11:55;;;;;;;;;;;8.00;96.80;;;;;;5091548;28;20242;-70
2021/12/14 15:14:38;;;;;;;;;;;8.00;96.80;;;;;;5090729;28;19918;-71
2021/12/14 15:17:33;;;;;;;;;;;8.00;96.80;;;;;;5094741;28;19965;-70
2021/12/14 15:19:59;;;;;;;;;;;8.00;96.80;;;;;;5074738;28;19951;-70
2021/12/14 15:22:32;;;;;;;;;;;8.00;96.80;;;;;;5096113;28;19947;-70